Time;durP1;ratioP1;P1;durP2;ratioP2;P2;SDS_P1;SDS_P2;PMS_P1;PMS_P2;Temp;Humidity;BMP_temperature;BMP_pressure;BME280_temperature;BME280_humidity;BME280_pressure;Samples;Min_cycle;Max_cycle;Signal;HPM_P1;HPM_P2
2023/04/02 00:01:15;;;;;;;7.07;2.17;;;;;;;3.72;100.00;100312.28;5173384;28;20052;-75
2023/04/02 00:03:52;;;;;;;6.68;1.95;;;;;;;3.66;100.00;100327.84;5158099;28;20095;-75
2023/04/02 00:06:32;;;;;;;3.92;2.10;;;;;;;3.59;100.00;100321.91;5174317;28;20100;-74
2023/04/02 00:09:20;;;;;;;7.40;2.17;;;;;;;3.52;100.00;100334.06;5178297;28;20071;-75
2023/04/02 00:11:53;;;;;;;7.22;2.45;;;;;;;3.58;100.00;100346.03;5173814;28;20518;-75
2023/04/02 00:14:27;;;;;;;4.80;2.20;;;;;;;3.51;100.00;100342.69;5176971;28;20030;-75
2023/04/02 00:17:00;;;;;;;6.53;2.05;;;;;;;3.63;100.00;100358.91;5159774;28;20475;-73
2023/04/02 00:19:40;;;;;;;6.07;1.90;;;;;;;3.56;100.00;100354.66;5177254;28;20034;-74
2023/04/02 00:22:26;;;;;;;11.60;1.95;;;;;;;3.52;100.00;100365.91;5177132;28;20041;-74
2023/04/02 00:24:59;;;;;;;;;;;;;;;3.59;100.00;100365.81;5180313;28;20032;-74
2023/04/02 00:27:30;;;;;;;4.45;2.00;;;;;;;3.61;100.00;100374.41;5178664;28;20513;-74
2023/04/02 00:30:02;;;;;;;7.00;1.90;;;;;;;3.55;100.00;100375.34;5200452;23;20053;-75
2023/04/02 00:32:35;;;;;;;5.68;2.03;;;;;;;3.65;100.00;100378.66;5155716;28;20029;-75
2023/04/02 00:35:23;;;;;;;4.05;1.75;;;;;;;3.51;100.00;100387.44;5162309;28;20030;-76
2023/04/02 00:37:55;;;;;;;5.63;1.80;;;;;;;3.40;100.00;100402.19;5156542;28;20026;-76
2023/04/02 00:40:29;;;;;;;4.72;1.65;;;;;;;3.54;100.00;100404.66;5173877;28;20030;-75
2023/04/02 00:43:03;;;;;;;4.95;1.73;;;;;;;3.50;100.00;100400.38;5155727;28;20045;-75
2023/04/02 00:45:35;;;;;;;6.97;1.95;;;;;;;3.40;100.00;100414.25;5164045;28;20026;-75
2023/04/02 00:48:24;;;;;;;4.68;1.85;;;;;;;3.39;100.00;100417.69;5175328;28;20481;-75
2023/04/02 00:50:55;;;;;;;5.03;1.67;;;;;;;3.35;100.00;100429.78;5175813;28;20033;-75
2023/04/02 00:53:29;;;;;;;5.53;3.10;;;;;;;3.38;100.00;100419.41;5156473;28;20033;-74
2023/04/02 00:56:02;;;;;;;3.40;1.50;;;;;;;3.45;100.00;100413.34;5167347;28;20472;-73
2023/04/02 00:58:35;;;;;;;5.13;1.70;;;;;;;3.38;100.00;100418.56;5172864;28;20036;-76
2023/04/02 01:01:22;;;;;;;4.50;1.75;;;;;;;3.38;100.00;100431.50;5171958;28;20392;-74
2023/04/02 01:03:58;;;;;;;3.65;1.73;;;;;;;3.39;100.00;100435.78;5175561;28;20025;-75
2023/04/02 01:06:35;;;;;;;3.88;1.55;;;;;;;3.39;100.00;100446.94;5174912;28;20073;-75
2023/04/02 01:09:30;;;;;;;7.30;1.70;;;;;;;3.44;100.00;100440.03;5172435;28;20036;-75
2023/04/02 01:12:31;;;;;;;4.10;1.50;;;;;;;3.44;100.00;100445.22;5172641;28;20480;-73
2023/04/02 01:15:31;;;;;;;4.43;1.73;;;;;;;3.46;100.00;100451.22;5173703;28;20041;-75
2023/04/02 01:18:12;;;;;;;4.93;1.88;;;;;;;3.29;100.00;100458.25;5153922;28;20129;-75
2023/04/02 01:20:48;;;;;;;7.07;2.10;;;;;;;3.27;100.00;100459.13;5175758;28;20022;-75
2023/04/02 01:23:47;;;;;;;3.15;1.30;;;;;;;3.47;100.00;100464.97;5174693;28;20647;-75
2023/04/02 01:26:48;;;;;;;7.45;1.88;;;;;;;3.35;100.00;100473.69;5174378;28;20053;-75
2023/04/02 01:29:31;;;;;;;6.05;1.52;;;;;;;3.28;100.00;100476.31;5170701;28;20022;-76
2023/04/02 01:32:06;;;;;;;4.72;1.50;;;;;;;3.16;100.00;100479.03;5171964;28;20570;-73
2023/04/02 01:34:37;;;;;;;3.58;1.35;;;;;;;3.18;100.00;100483.28;5174225;28;20033;-75
2023/04/02 01:37:43;;;;;;;4.82;1.05;;;;;;;3.12;100.00;100488.50;5172781;28;20049;-75
2023/04/02 01:40:41;;;;;;;4.37;1.10;;;;;;;3.12;100.00;100498.81;5173133;28;20030;-75
2023/04/02 01:43:31;;;;;;;4.05;1.33;;;;;;;3.16;100.00;100494.50;5155434;28;20227;-73
2023/04/02 01:46:27;;;;;;;6.50;1.42;;;;;;;3.12;100.00;100492.78;5175960;28;20404;-73
2023/04/02 01:49:11;;;;;;;2.45;1.10;;;;;;;3.16;100.00;100512.59;5155282;28;20713;-74
2023/04/02 01:51:44;;;;;;;3.58;1.15;;;;;;;3.16;100.00;100515.16;5172141;28;20060;-75
2023/04/02 01:54:16;;;;;;;4.53;1.52;;;;;;;3.11;100.00;100516.91;5169914;28;20049;-76
2023/04/02 01:56:47;;;;;;;3.28;1.23;;;;;;;3.21;100.00;100528.88;5173044;28;20942;-73
2023/04/02 01:59:21;;;;;;;4.50;1.52;;;;;;;3.19;100.00;100535.78;5173475;28;20057;-75
2023/04/02 02:01:57;;;;;;;6.95;1.40;;;;;;;3.24;100.00;100539.19;5157526;28;20037;-75
2023/04/02 02:04:28;;;;;;;6.80;1.58;;;;;;;3.13;100.00;100539.25;5155210;28;20475;-74
2023/04/02 02:07:01;;;;;;;5.18;1.00;;;;;;;3.22;100.00;100546.09;5176391;28;20049;-75
2023/04/02 02:09:34;;;;;;;4.03;1.30;;;;;;;3.19;100.00;100546.97;5173737;28;20022;-75
2023/04/02 02:12:05;;;;;;;3.53;1.10;;;;;;;3.19;100.00;100557.28;5173586;28;20022;-76
2023/04/02 02:14:35;;;;;;;4.78;1.33;;;;;;;3.19;100.00;100556.44;5175815;28;20451;-75
2023/04/02 02:17:12;;;;;;;4.55;1.10;;;;;;;3.19;100.00;100562.44;5155830;28;20316;-75
2023/04/02 02:19:45;;;;;;;4.10;1.27;;;;;;;3.13;100.00;100570.25;5156223;28;20022;-76
2023/04/02 02:22:29;;;;;;;2.08;0.90;;;;;;;3.21;100.00;100565.03;5169269;28;20560;-74
2023/04/02 02:25:04;;;;;;;4.97;1.00;;;;;;;3.26;100.00;100565.84;5172640;28;20026;-75
2023/04/02 02:27:59;;;;;;;2.95;1.00;;;;;;;3.19;100.00;100577.09;5175447;28;20410;-73
2023/04/02 02:30:44;;;;;;;5.53;1.15;;;;;;;3.21;100.00;100577.94;5173651;28;20075;-75
2023/04/02 02:33:24;;;;;;;4.00;1.20;;;;;;;3.21;100.00;100585.69;5172242;28;20018;-76
2023/04/02 02:36:00;;;;;;;3.58;1.00;;;;;;;3.09;100.00;100591.78;5177188;28;20256;-74
2023/04/02 02:38:33;;;;;;;3.78;0.90;;;;;;;3.27;100.00;100596.84;5176003;28;20030;-75
2023/04/02 02:41:15;;;;;;;6.22;1.10;;;;;;;3.22;100.00;100595.97;5172639;28;20558;-74
2023/04/02 02:43:55;;;;;;;3.28;1.00;;;;;;;3.07;100.00;100614.16;5173930;28;20459;-74
2023/04/02 02:46:26;;;;;;;4.95;1.05;;;;;;;3.05;100.00;100604.72;5154389;28;20097;-74
2023/04/02 02:48:58;;;;;;;4.47;1.00;;;;;;;3.12;100.00;100621.88;5153147;28;20040;-74
2023/04/02 02:51:41;;;;;;;3.45;1.05;;;;;;;3.23;100.00;100620.94;5172060;28;20238;-74
2023/04/02 02:54:14;;;;;;;5.40;1.10;;;;;;;3.23;100.00;100626.09;5170740;28;20044;-74
2023/04/02 02:56:50;;;;;;;7.90;1.30;;;;;;;3.22;100.00;100628.72;5157488;28;20080;-75
2023/04/02 02:59:22;;;;;;;3.58;1.00;;;;;;;3.19;100.00;100632.16;5172484;28;20034;-74
2023/04/02 03:01:52;;;;;;;4.70;1.13;;;;;;;3.22;100.00;100636.47;5174551;28;20510;-74
2023/04/02 03:04:24;;;;;;;4.65;1.00;;;;;;;3.31;100.00;100633.81;5170143;28;20038;-74
2023/04/02 03:06:56;;;;;;;2.42;0.90;;;;;;;3.30;100.00;100637.25;5152848;28;20025;-74
2023/04/02 03:09:38;;;;;;;3.53;1.20;;;;;;;3.30;100.00;100645.00;5153610;28;20023;-74
2023/04/02 03:12:22;;;;;;;5.22;0.80;;;;;;;3.29;100.00;100643.28;5169522;28;20058;-75
2023/04/02 03:15:22;;;;;;;5.55;1.05;;;;;;;3.15;100.00;100651.13;5173867;28;20029;-72
2023/04/02 03:18:34;;;;;;;3.10;0.70;;;;;;;3.15;100.00;100660.56;5156782;28;20495;-74
2023/04/02 03:21:21;;;;;;;2.33;1.05;;;;;;;3.25;100.00;100655.38;5135241;28;20040;-74
2023/04/02 03:24:05;;;;;;;1.58;0.60;;;;;;;3.13;100.00;100670.03;5170164;28;20092;-74
2023/04/02 03:26:44;;;;;;;3.40;1.00;;;;;;;3.11;100.00;100682.97;5177373;28;20584;-74
2023/04/02 03:29:26;;;;;;;1.83;0.90;;;;;;;3.12;100.00;100683.81;5179172;28;20369;-75
2023/04/02 03:32:04;;;;;;;3.25;0.85;;;;;;;3.22;100.00;100677.78;5174383;28;20253;-75
2023/04/02 03:34:44;;;;;;;5.07;1.00;;;;;;;3.16;98.59;100691.56;5176707;28;20033;-75
2023/04/02 03:37:21;;;;;;;2.00;0.75;;;;;;;3.21;97.62;100699.28;5160423;28;20065;-75
2023/04/02 03:39:55;;;;;;;5.70;1.10;;;;;;;3.17;97.76;100697.59;5158573;28;20054;-74
2023/04/02 03:42:29;;;;;;;2.83;1.02;;;;;;;3.16;99.24;100704.47;5173033;28;20038;-74
2023/04/02 03:45:23;;;;;;;4.35;0.90;;;;;;;3.20;99.35;100711.31;5154546;28;20129;-74
2023/04/02 03:48:01;;;;;;;1.20;0.60;;;;;;;3.34;98.92;100716.47;5153296;28;20029;-74
2023/04/02 03:50:44;;;;;;;2.38;0.77;;;;;;;3.22;96.89;100721.66;5154486;28;20030;-74
2023/04/02 03:53:14;;;;;;;4.30;0.85;;;;;;;3.18;98.66;100730.28;5174906;28;20026;-75
2023/04/02 03:55:45;;;;;;;4.30;0.90;;;;;;;3.20;98.55;100733.72;5178567;28;20073;-75
2023/04/02 03:58:39;;;;;;;2.60;1.10;;;;;;;3.20;98.80;100744.06;5172477;28;20058;-74
2023/04/02 04:01:25;;;;;;;3.00;0.90;;;;;;;3.14;99.24;100741.47;5177140;28;20450;-74
2023/04/02 04:04:03;;;;;;;2.88;0.60;;;;;;;3.12;97.85;100753.53;5156760;28;20095;-74
2023/04/02 04:06:35;;;;;;;1.98;0.63;;;;;;;3.24;98.24;100749.22;5177196;28;20026;-75
2023/04/02 04:09:23;;;;;;;1.58;0.60;;;;;;;3.19;98.31;100760.41;5154753;28;20021;-75
2023/04/02 04:12:23;;;;;;;4.25;0.90;;;;;;;3.16;97.60;100766.44;5174397;28;20030;-75
2023/04/02 04:15:06;;;;;;;2.10;0.82;;;;;;;3.15;96.03;100776.75;5171371;28;20450;-74
2023/04/02 04:17:37;;;;;;;3.13;0.80;;;;;;;3.19;95.93;100765.56;5177426;28;20496;-74
2023/04/02 04:20:22;;;;;;;4.28;1.00;;;;;;;3.21;96.17;100776.75;5158717;28;20038;-74
2023/04/02 04:22:56;;;;;;;1.58;0.70;;;;;;;3.24;96.98;100785.34;5176965;28;20403;-75
2023/04/02 04:25:29;;;;;;;3.90;1.10;;;;;;;3.21;97.49;100789.66;5176720;28;20113;-74
2023/04/02 04:28:18;;;;;;;2.58;0.75;;;;;;;3.24;97.15;100790.53;5158528;28;20026;-74
2023/04/02 04:31:02;;;;;;;1.92;0.70;;;;;;;3.26;96.09;100788.78;5174201;28;20087;-73
2023/04/02 04:33:44;;;;;;;3.65;1.15;;;;;;;3.29;98.34;100813.72;5162599;28;20099;-74
2023/04/02 04:36:27;;;;;;;2.35;0.70;;;;;;;3.26;99.45;100811.16;5160624;28;20127;-75
2023/04/02 04:39:04;;;;;;;2.03;0.60;;;;;;;3.21;98.15;100812.91;5174440;28;20044;-74
2023/04/02 04:41:37;;;;;;;1.60;0.80;;;;;;;3.36;96.02;100824.03;5160191;28;20092;-74
2023/04/02 04:44:27;;;;;;;3.70;0.90;;;;;;;3.30;95.72;100823.19;5176584;28;20025;-73
2023/04/02 04:47:10;;;;;;;2.30;0.88;;;;;;;3.33;96.51;100824.06;5173817;28;20551;-75
2023/04/02 04:49:55;;;;;;;2.83;0.80;;;;;;;3.27;96.90;100834.41;5157892;28;20472;-74
2023/04/02 04:52:32;;;;;;;2.22;0.88;;;;;;;3.34;96.13;100835.25;5178964;28;20146;-74
2023/04/02 04:55:21;;;;;;;3.17;1.30;;;;;;;3.38;96.38;100839.53;5179700;28;20028;-75
2023/04/02 04:58:00;;;;;;;3.00;0.60;;;;;;;3.30;95.70;100849.00;5174747;28;20053;-75
2023/04/02 05:00:54;;;;;;;3.47;0.70;;;;;;;3.35;96.25;100862.78;5180614;28;20029;-74
2023/04/02 05:03:43;;;;;;;4.30;0.80;;;;;;;3.30;96.08;100857.63;5157926;28;20021;-75
2023/04/02 05:06:23;;;;;;;2.22;0.82;;;;;;;3.43;95.56;100861.03;5159768;28;20026;-74
2023/04/02 05:08:59;;;;;;;5.65;0.98;;;;;;;3.34;94.89;100859.34;5178015;28;20383;-74
2023/04/02 05:11:35;;;;;;;3.47;0.70;;;;;;;3.36;96.00;100874.84;5158965;28;20356;-75
2023/04/02 05:14:12;;;;;;;3.28;0.98;;;;;;;3.39;94.97;100870.50;5175525;28;20025;-74
2023/04/02 05:16:51;;;;;;;2.65;0.90;;;;;;;3.37;93.42;100871.41;5172538;28;20506;-74
2023/04/02 05:19:34;;;;;;;3.72;0.70;;;;;;;3.28;92.58;100876.56;5159704;28;20037;-75
2023/04/02 05:22:27;;;;;;;3.38;0.80;;;;;;;3.32;93.27;100884.31;5173854;28;20447;-74
2023/04/02 05:25:01;;;;;;;2.72;0.63;;;;;;;3.42;93.89;100890.31;5173617;28;20045;-74
2023/04/02 05:27:40;;;;;;;2.65;0.50;;;;;;;3.39;92.05;100896.34;5178252;28;20091;-74
2023/04/02 05:30:23;;;;;;;4.05;0.70;;;;;;;3.46;92.43;100897.19;5177563;28;20535;-75
2023/04/02 05:32:58;;;;;;;3.15;0.90;;;;;;;3.45;93.72;100905.81;5161875;28;20084;-74
2023/04/02 05:35:35;;;;;;;4.55;1.00;;;;;;;3.52;95.27;100907.53;5177160;28;20053;-74
2023/04/02 05:38:05;;;;;;;4.13;0.85;;;;;;;3.54;95.15;100916.97;5176528;28;20383;-75
2023/04/02 05:40:45;;;;;;;2.95;0.85;;;;;;;3.54;93.19;100927.31;5158120;28;20034;-74
2023/04/02 05:43:19;;;;;;;1.95;0.73;;;;;;;3.49;94.07;100933.34;5173464;28;20081;-75
2023/04/02 05:45:57;;;;;;;5.45;0.90;;;;;;;3.58;95.43;100942.81;5175865;28;20065;-74
2023/04/02 05:48:36;;;;;;;2.35;0.70;;;;;;;3.57;95.00;100941.97;5177094;28;20384;-74
2023/04/02 05:51:16;;;;;;;3.38;0.65;;;;;;;3.62;95.96;100948.84;5158050;28;20045;-75
2023/04/02 05:53:58;;;;;;;3.05;0.80;;;;;;;3.56;94.68;100950.59;5173480;28;20022;-75
2023/04/02 05:56:41;;;;;;;2.63;0.73;;;;;;;3.67;95.04;100954.88;5174224;28;20025;-72
2023/04/02 05:59:20;;;;;;;3.13;1.00;;;;;;;3.69;93.47;100964.34;5156405;28;20141;-74
2023/04/02 06:02:15;;;;;;;3.10;0.82;;;;;;;3.64;95.35;100966.06;5176886;28;20034;-76
2023/04/02 06:04:52;;;;;;;4.55;1.33;;;;;;;3.63;94.18;100971.25;5171926;28;20254;-74
2023/04/02 06:07:27;;;;;;;3.40;0.80;;;;;;;3.58;94.67;100976.41;5178023;28;20034;-74
2023/04/02 06:10:04;;;;;;;5.07;1.17;;;;;;;3.51;93.51;100979.00;5174661;28;20026;-74
2023/04/02 06:12:35;;;;;;;2.63;0.85;;;;;;;3.59;93.61;100983.28;5175784;28;20045;-74
2023/04/02 06:15:21;;;;;;;3.38;0.82;;;;;;;3.52;93.99;100985.88;5154131;28;20142;-76
2023/04/02 06:17:58;;;;;;;;;;;;;;;3.71;94.00;100991.03;5173628;28;20083;-75
2023/04/02 06:20:28;;;;;;;1.55;0.77;;;;;;;3.56;93.10;100997.09;5159413;28;19917;-74
2023/04/02 06:23:05;;;;;;;2.40;0.80;;;;;;;3.68;93.34;101006.56;5175021;28;20412;-74
2023/04/02 06:25:47;;;;;;;3.53;0.73;;;;;;;3.53;95.05;101008.28;5172976;28;20033;-76
2023/04/02 06:28:23;;;;;;;3.97;0.77;;;;;;;3.55;93.86;101016.03;5169785;28;20033;-75
2023/04/02 06:30:59;;;;;;;4.75;0.73;;;;;;;3.58;91.70;101026.38;5178040;23;20510;-74
2023/04/02 06:33:29;;;;;;;2.05;0.80;;;;;;;3.63;91.47;101022.91;5170758;28;20447;-74
2023/04/02 06:36:01;;;;;;;2.90;0.93;;;;;;;3.58;90.52;101028.09;5171717;28;20038;-73
2023/04/02 06:38:34;;;;;;;3.67;0.70;;;;;;;3.58;90.40;101040.16;5171776;28;20447;-73
2023/04/02 06:41:20;;;;;;;2.88;1.05;;;;;;;3.70;91.10;101040.13;5173249;28;20076;-73
2023/04/02 06:43:59;;;;;;;2.55;0.80;;;;;;;3.70;91.24;101037.53;5174140;28;20543;-74
2023/04/02 06:46:44;;;;;;;2.83;0.77;;;;;;;3.69;91.51;101044.47;5156564;28;20032;-73
2023/04/02 06:49:17;;;;;;;4.45;0.70;;;;;;;3.67;91.66;101053.94;5175102;28;20030;-73
2023/04/02 06:51:50;;;;;;;2.80;0.73;;;;;;;3.67;92.16;101059.09;5178217;28;20511;-73
2023/04/02 06:54:21;;;;;;;2.80;0.73;;;;;;;3.72;92.06;101057.38;5178121;28;20037;-73
2023/04/02 06:56:53;;;;;;;2.08;0.70;;;;;;;3.70;92.13;101061.69;5179938;28;20018;-73
2023/04/02 06:59:23;;;;;;;2.55;0.73;;;;;;;3.70;91.54;101065.97;5175246;28;20036;-73
2023/04/02 07:01:59;;;;;;;4.80;0.70;;;;;;;3.77;93.01;101071.13;5172892;28;20027;-73
2023/04/02 07:04:29;;;;;;;3.70;0.80;;;;;;;3.79;91.97;101074.59;5168731;28;20119;-74
2023/04/02 07:07:00;;;;;;;2.97;0.80;;;;;;;3.82;91.85;101079.75;5154651;28;20144;-73
2023/04/02 07:09:31;;;;;;;3.40;0.73;;;;;;;3.80;91.41;101086.63;5173796;28;20554;-73
2023/04/02 07:12:01;;;;;;;2.60;0.70;;;;;;;3.95;91.54;101086.63;5173581;28;20087;-73
2023/04/02 07:14:31;;;;;;;4.43;0.90;;;;;;;3.83;91.98;101094.41;5169094;28;20040;-73
2023/04/02 07:17:02;;;;;;;3.30;0.90;;;;;;;3.86;93.24;101091.84;5170735;28;20542;-74
2023/04/02 07:19:32;;;;;;;1.38;0.70;;;;;;;3.96;94.56;101096.13;5169731;28;20546;-74
2023/04/02 07:22:02;;;;;;;3.85;0.98;;;;;;;3.93;94.35;101106.47;5171633;28;20029;-74
2023/04/02 07:24:32;;;;;;;3.60;0.80;;;;;;;3.88;93.67;101103.03;5170338;28;20550;-73
2023/04/02 07:27:03;;;;;;;2.33;0.88;;;;;;;3.99;92.96;101116.78;5167669;28;20029;-73
2023/04/02 07:29:33;;;;;;;2.60;0.70;;;;;;;3.96;92.85;101121.13;5167811;28;20026;-73
2023/04/02 07:32:04;;;;;;;1.58;0.60;;;;;;;3.98;92.56;101119.41;5175319;28;20034;-74
2023/04/02 07:34:34;;;;;;;4.65;0.88;;;;;;;3.99;94.09;101116.78;5172015;28;20124;-73
2023/04/02 07:37:05;;;;;;;5.03;1.30;;;;;;;3.97;94.00;101126.28;5175499;28;20033;-74
2023/04/02 07:39:36;;;;;;;0.82;0.50;;;;;;;4.06;95.49;101131.47;5175264;28;20025;-74
2023/04/02 07:42:06;;;;;;;3.33;0.80;;;;;;;4.12;93.50;101136.63;5172670;28;20332;-74
2023/04/02 07:44:37;;;;;;;6.78;1.02;;;;;;;4.13;94.22;101148.69;5161422;28;20040;-74
2023/04/02 07:47:09;;;;;;;2.45;1.00;;;;;;;4.07;95.02;101148.69;5179731;28;20033;-74
2023/04/02 07:49:39;;;;;;;1.92;0.70;;;;;;;3.94;94.00;101151.28;5178161;28;20034;-74
2023/04/02 07:52:10;;;;;;;4.55;0.70;;;;;;;3.99;95.15;101157.31;5174428;28;20025;-74
2023/04/02 07:54:41;;;;;;;5.32;0.95;;;;;;;4.09;95.57;101161.63;5166281;28;20030;-72
2023/04/02 07:57:11;;;;;;;2.50;0.75;;;;;;;4.04;93.42;101168.50;5169996;28;20025;-73
2023/04/02 07:59:41;;;;;;;3.25;0.88;;;;;;;4.09;95.04;101170.25;5162191;28;20057;-73
2023/04/02 08:02:20;;;;;;;2.45;1.30;;;;;;;4.14;94.98;101181.44;5177952;28;20180;-73
2023/04/02 08:04:50;;;;;;;2.67;0.80;;;;;;;4.10;94.32;101179.72;5176748;28;20487;-73
2023/04/02 08:07:20;;;;;;;3.67;0.90;;;;;;;4.13;93.23;101182.31;5177381;28;20045;-74
2023/04/02 08:09:51;;;;;;;2.38;0.70;;;;;;;4.17;94.05;101196.97;5180192;28;20034;-73
2023/04/02 08:12:21;;;;;;;3.65;1.00;;;;;;;4.21;94.43;101198.69;5151316;28;20488;-74
2023/04/02 08:14:51;;;;;;;4.07;0.80;;;;;;;4.36;95.02;101198.69;5171778;28;20092;-74
2023/04/02 08:17:22;;;;;;;3.42;0.82;;;;;;;4.30;94.64;101198.69;5175853;28;20111;-74
2023/04/02 08:19:54;;;;;;;4.18;1.00;;;;;;;4.24;95.31;101210.75;5167927;28;20045;-73
2023/04/02 08:22:28;;;;;;;2.30;0.90;;;;;;;4.11;92.88;101214.22;5163448;28;20117;-74
2023/04/02 08:24:59;;;;;;;1.83;0.82;;;;;;;4.11;92.35;101222.81;5170975;28;20038;-74
2023/04/02 08:27:29;;;;;;;3.28;0.85;;;;;;;4.10;92.24;101223.69;5174608;28;20030;-74
2023/04/02 08:30:00;;;;;;;2.08;0.63;;;;;;;4.13;93.27;101231.44;5173042;28;20309;-73
2023/04/02 08:32:30;;;;;;;4.97;0.88;;;;;;;4.22;92.63;101236.63;5172475;28;20660;-74
2023/04/02 08:35:01;;;;;;;3.70;1.23;;;;;;;4.13;89.88;101236.63;5169176;28;20396;-73
2023/04/02 08:37:31;;;;;;;4.05;1.23;;;;;;;4.29;89.85;101237.50;5175579;28;20321;-74
2023/04/02 08:40:03;;;;;;;1.95;0.65;;;;;;;4.29;89.04;101245.25;5174633;28;20026;-75
2023/04/02 08:43:04;;;;;;;2.53;0.50;;;;;;;4.31;89.59;101246.97;5155897;28;20022;-74
2023/04/02 08:45:45;;;;;;;4.45;1.00;;;;;;;4.30;88.78;101257.34;5122842;28;20526;-73
2023/04/02 08:48:16;;;;;;;1.50;0.68;;;;;;;4.25;90.74;101267.66;5180580;28;20464;-73
2023/04/02 08:50:46;;;;;;;4.22;0.80;;;;;;;4.13;89.68;101265.06;5175961;28;20030;-73
2023/04/02 08:53:20;;;;;;;3.67;0.73;;;;;;;4.22;89.95;101275.44;5176808;28;20987;-74
2023/04/02 08:56:07;;;;;;;3.63;0.70;;;;;;;4.23;89.72;101266.81;5179074;28;20029;-74
2023/04/02 08:58:42;;;;;;;1.67;0.70;;;;;;;4.42;88.59;101280.59;5177448;28;20060;-74
2023/04/02 09:01:34;;;;;;;2.63;0.70;;;;;;;4.29;90.24;101279.75;5174709;28;20492;-73
2023/04/02 09:04:22;;;;;;;2.78;1.00;;;;;;;4.27;89.40;101281.47;5178590;28;20048;-74
2023/04/02 09:06:55;;;;;;;10.07;1.15;;;;;;;4.47;88.99;101295.28;5181366;28;20029;-74
2023/04/02 09:09:26;;;;;;;3.38;0.60;;;;;;;4.42;89.59;101297.00;5178990;28;20038;-73
2023/04/02 09:12:02;;;;;;;2.13;0.70;;;;;;;4.35;89.82;101295.28;5174843;28;20038;-74
2023/04/02 09:14:46;;;;;;;6.85;1.50;;;;;;;4.34;88.00;101301.34;5155247;28;20148;-74
2023/04/02 09:17:23;;;;;;;3.65;1.02;;;;;;;4.40;89.25;101306.50;5176800;28;20021;-74
2023/04/02 09:20:07;;;;;;;3.47;0.80;;;;;;;4.47;88.88;101310.81;5177390;28;20045;-72
2023/04/02 09:22:38;;;;;;;3.80;0.50;;;;;;;4.46;88.13;101309.06;5152965;28;20114;-73
2023/04/02 09:25:19;;;;;;;5.03;0.95;;;;;;;4.42;88.73;101322.88;5158621;28;20124;-74
2023/04/02 09:27:53;;;;;;;2.42;0.95;;;;;;;4.35;88.20;101321.16;5172658;28;20042;-73
2023/04/02 09:30:41;;;;;;;4.50;0.85;;;;;;;4.56;88.78;101318.59;5177986;28;20451;-74
2023/04/02 09:33:11;;;;;;;4.65;0.85;;;;;;;4.54;88.30;101317.72;5175574;28;20149;-72
2023/04/02 09:35:48;;;;;;;4.00;0.80;;;;;;;4.37;87.00;101318.56;5156247;28;20061;-74
2023/04/02 09:38:20;;;;;;;5.78;0.80;;;;;;;4.39;88.11;101325.47;5175564;28;20497;-73
2023/04/02 09:40:53;;;;;;;2.38;0.70;;;;;;;4.45;87.79;101338.41;5176414;28;20507;-73
2023/04/02 09:43:32;;;;;;;5.18;0.93;;;;;;;4.54;88.45;101340.13;5160824;28;20383;-73
2023/04/02 09:46:21;;;;;;;1.95;0.88;;;;;;;4.60;86.69;101341.00;5174141;28;20038;-74
2023/04/02 09:48:54;;;;;;;2.67;0.73;;;;;;;4.64;85.92;101342.72;5174757;28;20322;-74
2023/04/02 09:51:27;;;;;;;2.53;0.90;;;;;;;4.58;86.12;101350.50;5174755;28;20404;-73
2023/04/02 09:54:03;;;;;;;2.92;0.82;;;;;;;4.84;86.77;101353.94;5175926;28;20121;-73
2023/04/02 09:56:36;;;;;;;2.58;0.88;;;;;;;4.91;85.66;101355.69;5175719;28;20533;-73
2023/04/02 09:59:12;;;;;;;3.13;0.90;;;;;;;4.81;84.99;101369.50;5176873;28;20113;-74
2023/04/02 10:01:54;;;;;;;2.85;0.70;;;;;;;4.79;86.34;101371.22;5174561;28;20049;-73
2023/04/02 10:04:44;;;;;;;5.13;0.80;;;;;;;4.86;87.18;101370.38;5155727;28;20030;-73
2023/04/02 10:07:38;;;;;;;7.63;1.10;;;;;;;4.83;86.49;101374.69;5172095;28;20046;-73
2023/04/02 10:10:32;;;;;;;2.25;0.68;;;;;;;4.72;86.24;101379.88;5153169;28;20063;-72
2023/04/02 10:13:17;;;;;;;5.07;0.88;;;;;;;4.72;84.24;101390.22;5171470;28;20038;-74
2023/04/02 10:15:54;;;;;;;2.33;0.70;;;;;;;5.01;85.98;101396.25;5172085;28;20096;-73
2023/04/02 10:18:36;;;;;;;3.08;0.63;;;;;;;5.18;84.97;101397.09;5173894;28;20038;-75
2023/04/02 10:21:11;;;;;;;4.45;0.75;;;;;;;5.12;82.39;101399.72;5176424;28;20046;-71
2023/04/02 10:23:42;;;;;;;2.42;0.60;;;;;;;5.27;81.45;101397.13;5175187;28;20026;-73
2023/04/02 10:26:23;;;;;;;3.75;0.82;;;;;;;5.40;80.47;101401.41;5176503;28;20050;-74
2023/04/02 10:28:53;;;;;;;2.28;0.80;;;;;;;5.31;80.97;101409.19;5172957;28;20034;-73
2023/04/02 10:31:30;;;;;;;1.43;0.50;;;;;;;5.42;80.25;101410.06;5174883;28;20309;-74
2023/04/02 10:34:11;;;;;;;2.63;0.57;;;;;;;5.42;78.50;101410.06;5174441;28;20314;-74
2023/04/02 10:37:19;;;;;;;3.80;0.77;;;;;;;5.63;78.67;101417.78;5174496;28;20048;-74
2023/04/02 10:39:57;;;;;;;6.40;0.80;;;;;;;5.77;76.85;101416.03;5175092;28;20040;-73
2023/04/02 10:42:41;;;;;;;1.58;0.50;;;;;;;5.66;78.50;101417.78;5172919;28;20066;-74
2023/04/02 10:45:55;;;;;;;0.55;0.40;;;;;;;5.59;78.37;101418.66;5172827;28;20034;-73
2023/04/02 10:48:50;;;;;;;2.58;0.60;;;;;;;5.85;79.93;101430.72;5086957;29;20123;-73
2023/04/02 10:51:53;;;;;;;3.58;0.60;;;;;;;6.12;78.16;101425.44;5089312;29;20110;-73
2023/04/02 10:54:39;;;;;;;1.33;0.47;;;;;;;5.92;77.21;101419.44;5171983;28;20038;-73
2023/04/02 10:57:25;;;;;;;2.78;0.52;;;;;;;5.93;78.56;101430.72;5171610;28;20230;-75
2023/04/02 11:00:09;;;;;;;2.88;0.60;;;;;;;5.90;77.63;101425.53;5174825;28;20119;-75
2023/04/02 11:02:48;;;;;;;2.90;0.80;;;;;;;6.28;78.95;101431.44;5158626;28;20538;-74
2023/04/02 11:05:39;;;;;;;2.90;1.00;;;;;;;6.09;77.46;101442.75;5174641;28;20064;-73
2023/04/02 11:08:24;;;;;;;2.20;0.70;;;;;;;6.14;78.66;101452.25;5172254;28;20048;-72
2023/04/02 11:11:06;;;;;;;2.20;0.73;;;;;;;6.15;77.21;101448.81;5174018;28;20133;-74
2023/04/02 11:14:00;;;;;;;2.67;0.68;;;;;;;6.16;75.65;101449.63;5174534;28;20038;-73
2023/04/02 11:16:31;;;;;;;1.70;0.70;;;;;;;6.10;77.77;101447.09;5155669;28;20037;-72
2023/04/02 11:19:21;;;;;;;2.20;0.75;;;;;;;6.04;78.12;101453.16;5175331;28;20099;-74
2023/04/02 11:22:00;;;;;;;3.45;0.80;;;;;;;5.95;75.86;101449.72;5172780;28;20025;-74
2023/04/02 11:24:37;;;;;;;2.53;1.00;;;;;;;6.17;74.13;101451.38;5172774;28;20073;-73
2023/04/02 11:27:10;;;;;;;3.80;0.73;;;;;;;6.22;75.84;101449.63;5175850;28;20041;-73
2023/04/02 11:30:01;;;;;;;1.58;0.60;;;;;;;6.48;74.12;101448.66;5173537;28;20034;-73
2023/04/02 11:32:49;;;;;;;1.05;0.50;;;;;;;6.56;74.19;101457.25;5174796;28;20041;-74
2023/04/02 11:35:29;;;;;;;2.03;0.70;;;;;;;6.83;73.46;101458.81;5173244;28;20081;-74
2023/04/02 11:38:10;;;;;;;1.42;0.60;;;;;;;6.68;74.53;101456.31;5175370;28;20038;-74
2023/04/02 11:40:53;;;;;;;1.05;0.52;;;;;;;6.55;75.54;101475.41;5167325;28;20442;-73
2023/04/02 11:43:33;;;;;;;2.58;0.75;;;;;;;6.58;73.36;101476.28;5168724;28;20104;-73
2023/04/02 11:46:15;;;;;;;5.28;1.02;;;;;;;6.65;74.38;101477.13;5173142;28;20029;-74
2023/04/02 11:48:46;;;;;;;1.23;0.60;;;;;;;6.64;75.30;101483.19;5172868;28;20042;-72
2023/04/02 11:51:19;;;;;;;2.22;0.90;;;;;;;6.45;74.93;101478.94;5173568;28;20522;-73
2023/04/02 11:53:52;;;;;;;4.40;0.80;;;;;;;6.58;75.40;101484.06;5176616;28;20228;-74
2023/04/02 11:56:39;;;;;;;1.13;0.50;;;;;;;6.25;75.98;101496.34;5175238;28;20484;-73
2023/04/02 11:59:43;;;;;;;1.63;0.50;;;;;;;6.22;77.14;101497.19;5173981;28;20042;-73
2023/04/02 12:02:24;;;;;;;2.38;0.60;;;;;;;6.25;76.79;101496.34;5178121;28;20514;-73
2023/04/02 12:05:09;;;;;;;4.45;0.88;;;;;;;6.36;75.72;101492.84;5177639;28;20422;-73
2023/04/02 12:07:52;;;;;;;1.95;0.65;;;;;;;6.45;74.86;101489.34;5173215;28;20561;-73
2023/04/02 12:10:31;;;;;;;6.45;0.70;;;;;;;6.56;72.88;101491.00;5172304;28;20103;-74
2023/04/02 12:13:01;;;;;;;4.00;0.70;;;;;;;7.03;74.32;101485.53;5175366;28;20396;-74
2023/04/02 12:15:56;;;;;;;2.05;0.40;;;;;;;7.35;72.50;101482.69;5176428;28;20070;-73
2023/04/02 12:18:27;;;;;;;1.17;0.40;;;;;;;7.15;72.66;101491.53;5155660;28;20044;-73
2023/04/02 12:20:57;;;;;;;0.98;0.52;;;;;;;7.06;71.30;101498.50;5159197;28;20029;-73
2023/04/02 12:23:30;;;;;;;0.93;0.40;;;;;;;7.20;71.98;101496.66;5176266;28;20381;-73
2023/04/02 12:26:22;;;;;;;2.72;0.70;;;;;;;7.64;73.01;101490.22;5178635;28;20040;-72